sensor_id;sensor_type;location;lat;lon;timestamp;temperature;humidity
41290;DHT22;36117;46.680;11.154;2022-11-20T00:03:35;8.90;57.20
41290;DHT22;36117;46.680;11.154;2022-11-20T00:06:05;10.10;57.50
41290;DHT22;36117;46.680;11.154;2022-11-20T00:08:32;10.20;56.80
41290;DHT22;36117;46.680;11.154;2022-11-20T00:11:06;10.40;55.90
41290;DHT22;36117;46.680;11.154;2022-11-20T00:13:33;10.30;54.80
41290;DHT22;36117;46.680;11.154;2022-11-20T00:16:00;9.70;57.50
41290;DHT22;36117;46.680;11.154;2022-11-20T00:18:27;9.40;59.60
41290;DHT22;36117;46.680;11.154;2022-11-20T00:21:24;9.00;60.30
41290;DHT22;36117;46.680;11.154;2022-11-20T00:23:51;9.50;60.10
41290;DHT22;36117;46.680;11.154;2022-11-20T00:26:20;9.70;59.20
41290;DHT22;36117;46.680;11.154;2022-11-20T00:28:51;9.90;58.10
41290;DHT22;36117;46.680;11.154;2022-11-20T00:31:17;10.10;57.30
41290;DHT22;36117;46.680;11.154;2022-11-20T00:33:44;10.10;57.30
41290;DHT22;36117;46.680;11.154;2022-11-20T00:36:15;10.40;56.80
41290;DHT22;36117;46.680;11.154;2022-11-20T00:38:41;10.50;57.00
41290;DHT22;36117;46.680;11.154;2022-11-20T00:41:09;10.30;56.10
41290;DHT22;36117;46.680;11.154;2022-11-20T00:43:37;10.30;56.40
41290;DHT22;36117;46.680;11.154;2022-11-20T00:46:14;10.30;56.70
41290;DHT22;36117;46.680;11.154;2022-11-20T00:48:41;10.20;56.70
41290;DHT22;36117;46.680;11.154;2022-11-20T00:51:07;9.90;57.50
41290;DHT22;36117;46.680;11.154;2022-11-20T00:53:33;9.70;58.70
41290;DHT22;36117;46.680;11.154;2022-11-20T00:56:05;9.40;59.40
41290;DHT22;36117;46.680;11.154;2022-11-20T00:58:34;9.10;61.00
41290;DHT22;36117;46.680;11.154;2022-11-20T01:03:42;9.50;60.00
41290;DHT22;36117;46.680;11.154;2022-11-20T01:08:39;9.50;59.50
41290;DHT22;36117;46.680;11.154;2022-11-20T01:11:09;10.10;60.60
41290;DHT22;36117;46.680;11.154;2022-11-20T01:13:36;9.30;60.40
41290;DHT22;36117;46.680;11.154;2022-11-20T01:16:14;9.40;60.10
41290;DHT22;36117;46.680;11.154;2022-11-20T01:18:42;9.70;59.20
41290;DHT22;36117;46.680;11.154;2022-11-20T01:21:12;9.80;59.10
41290;DHT22;36117;46.680;11.154;2022-11-20T01:23:39;9.70;58.10
41290;DHT22;36117;46.680;11.154;2022-11-20T01:26:14;9.80;57.10
41290;DHT22;36117;46.680;11.154;2022-11-20T01:28:40;9.70;55.40
41290;DHT22;36117;46.680;11.154;2022-11-20T01:31:17;9.80;55.60
41290;DHT22;36117;46.680;11.154;2022-11-20T01:33:44;9.90;54.80
41290;DHT22;36117;46.680;11.154;2022-11-20T01:36:11;10.00;54.20
41290;DHT22;36117;46.680;11.154;2022-11-20T01:38:37;10.00;54.90
41290;DHT22;36117;46.680;11.154;2022-11-20T01:41:04;10.00;54.50
41290;DHT22;36117;46.680;11.154;2022-11-20T01:43:31;10.10;55.00
41290;DHT22;36117;46.680;11.154;2022-11-20T01:48:40;10.00;53.70
41290;DHT22;36117;46.680;11.154;2022-11-20T01:51:17;10.00;54.20
41290;DHT22;36117;46.680;11.154;2022-11-20T01:53:45;10.00;54.10
41290;DHT22;36117;46.680;11.154;2022-11-20T01:56:12;10.00;53.50
41290;DHT22;36117;46.680;11.154;2022-11-20T01:58:44;9.90;53.20
41290;DHT22;36117;46.680;11.154;2022-11-20T02:01:13;9.90;53.00
41290;DHT22;36117;46.680;11.154;2022-11-20T02:03:39;9.80;53.20
41290;DHT22;36117;46.680;11.154;2022-11-20T02:06:19;9.90;53.50
41290;DHT22;36117;46.680;11.154;2022-11-20T02:08:46;9.90;53.70
41290;DHT22;36117;46.680;11.154;2022-11-20T02:11:12;9.90;53.50
41290;DHT22;36117;46.680;11.154;2022-11-20T02:13:38;9.90;53.90
41290;DHT22;36117;46.680;11.154;2022-11-20T02:16:34;9.80;53.90
41290;DHT22;36117;46.680;11.154;2022-11-20T02:19:02;9.90;54.10
41290;DHT22;36117;46.680;11.154;2022-11-20T02:21:43;10.00;54.20
41290;DHT22;36117;46.680;11.154;2022-11-20T02:24:15;9.50;57.30
41290;DHT22;36117;46.680;11.154;2022-11-20T02:29:50;9.40;58.20
41290;DHT22;36117;46.680;11.154;2022-11-20T02:32:22;9.40;58.50
41290;DHT22;36117;46.680;11.154;2022-11-20T02:34:48;9.40;59.90
41290;DHT22;36117;46.680;11.154;2022-11-20T02:37:15;9.50;59.60
41290;DHT22;36117;46.680;11.154;2022-11-20T02:39:42;9.30;59.70
41290;DHT22;36117;46.680;11.154;2022-11-20T02:42:08;9.00;61.20
41290;DHT22;36117;46.680;11.154;2022-11-20T02:44:34;9.10;61.50
41290;DHT22;36117;46.680;11.154;2022-11-20T02:47:00;8.90;61.20
41290;DHT22;36117;46.680;11.154;2022-11-20T02:49:26;8.50;63.20
41290;DHT22;36117;46.680;11.154;2022-11-20T02:51:51;8.70;63.40
41290;DHT22;36117;46.680;11.154;2022-11-20T02:54:17;8.80;62.30
41290;DHT22;36117;46.680;11.154;2022-11-20T02:56:43;8.70;62.90
41290;DHT22;36117;46.680;11.154;2022-11-20T02:59:09;8.80;63.20
41290;DHT22;36117;46.680;11.154;2022-11-20T03:01:35;9.00;62.00
41290;DHT22;36117;46.680;11.154;2022-11-20T03:04:02;9.10;61.80
41290;DHT22;36117;46.680;11.154;2022-11-20T03:06:28;9.10;61.70
41290;DHT22;36117;46.680;11.154;2022-11-20T03:08:54;9.00;62.50
41290;DHT22;36117;46.680;11.154;2022-11-20T03:11:20;8.60;63.20
41290;DHT22;36117;46.680;11.154;2022-11-20T03:13:45;8.80;63.90
41290;DHT22;36117;46.680;11.154;2022-11-20T03:16:14;8.80;62.90
41290;DHT22;36117;46.680;11.154;2022-11-20T03:18:41;9.00;62.90
41290;DHT22;36117;46.680;11.154;2022-11-20T03:21:08;9.10;61.90
41290;DHT22;36117;46.680;11.154;2022-11-20T03:23:35;9.00;61.40
41290;DHT22;36117;46.680;11.154;2022-11-20T03:26:13;8.90;62.60
41290;DHT22;36117;46.680;11.154;2022-11-20T03:28:39;9.00;62.60
41290;DHT22;36117;46.680;11.154;2022-11-20T03:31:10;8.90;62.30
41290;DHT22;36117;46.680;11.154;2022-11-20T03:33:37;8.60;62.80
41290;DHT22;36117;46.680;11.154;2022-11-20T03:36:08;8.80;63.10
41290;DHT22;36117;46.680;11.154;2022-11-20T03:38:34;8.70;62.50
41290;DHT22;36117;46.680;11.154;2022-11-20T03:41:08;8.50;62.40
41290;DHT22;36117;46.680;11.154;2022-11-20T03:43:35;8.40;62.40
41290;DHT22;36117;46.680;11.154;2022-11-20T03:46:02;8.50;62.50
41290;DHT22;36117;46.680;11.154;2022-11-20T03:48:28;8.60;62.30
41290;DHT22;36117;46.680;11.154;2022-11-20T03:51:07;8.70;62.60
41290;DHT22;36117;46.680;11.154;2022-11-20T03:53:33;8.60;62.10
41290;DHT22;36117;46.680;11.154;2022-11-20T03:55:59;8.40;62.70
41290;DHT22;36117;46.680;11.154;2022-11-20T03:58:24;8.40;63.70
41290;DHT22;36117;46.680;11.154;2022-11-20T04:00:50;8.30;63.70
41290;DHT22;36117;46.680;11.154;2022-11-20T04:03:16;8.20;65.10
41290;DHT22;36117;46.680;11.154;2022-11-20T04:05:41;8.20;65.20
41290;DHT22;36117;46.680;11.154;2022-11-20T04:08:07;8.20;65.50
41290;DHT22;36117;46.680;11.154;2022-11-20T04:10:33;8.50;64.70
41290;DHT22;36117;46.680;11.154;2022-11-20T04:12:58;8.70;63.80
41290;DHT22;36117;46.680;11.154;2022-11-20T04:15:24;8.70;64.00
41290;DHT22;36117;46.680;11.154;2022-11-20T04:17:50;8.70;64.10
41290;DHT22;36117;46.680;11.154;2022-11-20T04:20:16;8.70;63.80
41290;DHT22;36117;46.680;11.154;2022-11-20T04:22:41;8.40;65.30
41290;DHT22;36117;46.680;11.154;2022-11-20T04:25:08;8.30;66.00
41290;DHT22;36117;46.680;11.154;2022-11-20T04:27:33;8.30;65.90
41290;DHT22;36117;46.680;11.154;2022-11-20T04:29:59;8.50;65.20
41290;DHT22;36117;46.680;11.154;2022-11-20T04:32:25;8.30;63.90
41290;DHT22;36117;46.680;11.154;2022-11-20T04:34:50;8.00;65.70
41290;DHT22;36117;46.680;11.154;2022-11-20T04:37:16;8.10;65.60
41290;DHT22;36117;46.680;11.154;2022-11-20T04:39:42;7.90;65.80
41290;DHT22;36117;46.680;11.154;2022-11-20T04:42:09;8.00;66.10
41290;DHT22;36117;46.680;11.154;2022-11-20T04:44:54;8.20;65.50
41290;DHT22;36117;46.680;11.154;2022-11-20T04:47:20;8.20;64.70
41290;DHT22;36117;46.680;11.154;2022-11-20T04:49:46;8.10;65.40
41290;DHT22;36117;46.680;11.154;2022-11-20T04:52:12;7.90;65.70
41290;DHT22;36117;46.680;11.154;2022-11-20T04:54:37;8.00;66.40
41290;DHT22;36117;46.680;11.154;2022-11-20T04:57:03;8.20;67.60
41290;DHT22;36117;46.680;11.154;2022-11-20T04:59:29;8.10;66.90
41290;DHT22;36117;46.680;11.154;2022-11-20T05:01:55;8.10;66.40
41290;DHT22;36117;46.680;11.154;2022-11-20T05:04:20;8.00;66.50
41290;DHT22;36117;46.680;11.154;2022-11-20T05:06:46;8.10;66.70
41290;DHT22;36117;46.680;11.154;2022-11-20T05:09:12;8.20;66.30
41290;DHT22;36117;46.680;11.154;2022-11-20T05:11:38;8.10;65.70
41290;DHT22;36117;46.680;11.154;2022-11-20T05:14:04;8.10;65.40
41290;DHT22;36117;46.680;11.154;2022-11-20T05:16:29;7.90;65.90
41290;DHT22;36117;46.680;11.154;2022-11-20T05:18:55;8.10;66.10
41290;DHT22;36117;46.680;11.154;2022-11-20T05:21:21;8.10;64.80
41290;DHT22;36117;46.680;11.154;2022-11-20T05:23:48;8.00;65.10
41290;DHT22;36117;46.680;11.154;2022-11-20T05:26:17;8.00;65.50
41290;DHT22;36117;46.680;11.154;2022-11-20T05:28:43;8.20;64.90
41290;DHT22;36117;46.680;11.154;2022-11-20T05:31:11;8.20;64.20
41290;DHT22;36117;46.680;11.154;2022-11-20T05:33:40;7.90;64.20
41290;DHT22;36117;46.680;11.154;2022-11-20T05:36:08;7.80;64.50
41290;DHT22;36117;46.680;11.154;2022-11-20T05:38:34;7.70;65.80
41290;DHT22;36117;46.680;11.154;2022-11-20T05:41:19;7.90;66.10
41290;DHT22;36117;46.680;11.154;2022-11-20T05:43:46;7.80;66.20
41290;DHT22;36117;46.680;11.154;2022-11-20T05:46:14;8.10;66.10
41290;DHT22;36117;46.680;11.154;2022-11-20T05:48:42;8.20;65.50
41290;DHT22;36117;46.680;11.154;2022-11-20T05:51:13;8.10;65.30
41290;DHT22;36117;46.680;11.154;2022-11-20T05:53:40;8.20;65.60
41290;DHT22;36117;46.680;11.154;2022-11-20T05:56:09;8.30;65.30
41290;DHT22;36117;46.680;11.154;2022-11-20T05:58:38;8.40;65.00
41290;DHT22;36117;46.680;11.154;2022-11-20T06:01:09;8.30;66.00
41290;DHT22;36117;46.680;11.154;2022-11-20T06:03:35;7.60;66.40
41290;DHT22;36117;46.680;11.154;2022-11-20T06:06:02;7.40;68.10
41290;DHT22;36117;46.680;11.154;2022-11-20T06:08:28;7.50;68.50
41290;DHT22;36117;46.680;11.154;2022-11-20T06:10:54;7.70;68.20
41290;DHT22;36117;46.680;11.154;2022-11-20T06:13:20;7.80;67.70
41290;DHT22;36117;46.680;11.154;2022-11-20T06:15:52;8.00;67.40
41290;DHT22;36117;46.680;11.154;2022-11-20T06:18:18;8.20;66.00
41290;DHT22;36117;46.680;11.154;2022-11-20T06:20:45;8.20;65.90
41290;DHT22;36117;46.680;11.154;2022-11-20T06:23:10;8.30;65.70
41290;DHT22;36117;46.680;11.154;2022-11-20T06:25:40;8.40;65.60
41290;DHT22;36117;46.680;11.154;2022-11-20T06:28:07;8.30;64.80
41290;DHT22;36117;46.680;11.154;2022-11-20T06:30:33;8.20;65.20
41290;DHT22;36117;46.680;11.154;2022-11-20T06:32:59;7.70;67.00
41290;DHT22;36117;46.680;11.154;2022-11-20T06:35:24;7.70;68.30
41290;DHT22;36117;46.680;11.154;2022-11-20T06:37:50;7.70;68.60
41290;DHT22;36117;46.680;11.154;2022-11-20T06:40:16;7.60;69.60
41290;DHT22;36117;46.680;11.154;2022-11-20T06:42:42;6.90;71.30
41290;DHT22;36117;46.680;11.154;2022-11-20T06:45:08;7.20;70.90
41290;DHT22;36117;46.680;11.154;2022-11-20T06:47:34;7.20;69.90
41290;DHT22;36117;46.680;11.154;2022-11-20T06:50:00;7.50;69.80
41290;DHT22;36117;46.680;11.154;2022-11-20T06:52:25;7.10;70.40
41290;DHT22;36117;46.680;11.154;2022-11-20T06:54:51;6.90;71.90
41290;DHT22;36117;46.680;11.154;2022-11-20T06:57:17;7.00;72.20
41290;DHT22;36117;46.680;11.154;2022-11-20T06:59:42;7.40;70.80
41290;DHT22;36117;46.680;11.154;2022-11-20T07:02:12;7.70;70.00
41290;DHT22;36117;46.680;11.154;2022-11-20T07:04:38;7.90;69.30
41290;DHT22;36117;46.680;11.154;2022-11-20T07:07:04;8.10;68.70
41290;DHT22;36117;46.680;11.154;2022-11-20T07:09:31;8.30;67.80
41290;DHT22;36117;46.680;11.154;2022-11-20T07:11:58;8.10;67.40
41290;DHT22;36117;46.680;11.154;2022-11-20T07:14:23;8.20;67.60
41290;DHT22;36117;46.680;11.154;2022-11-20T07:16:49;8.00;67.80
41290;DHT22;36117;46.680;11.154;2022-11-20T07:19:15;8.10;67.80
41290;DHT22;36117;46.680;11.154;2022-11-20T07:21:41;8.00;67.30
41290;DHT22;36117;46.680;11.154;2022-11-20T07:24:06;8.20;67.40
41290;DHT22;36117;46.680;11.154;2022-11-20T07:26:32;8.40;67.50
41290;DHT22;36117;46.680;11.154;2022-11-20T07:28:58;8.40;66.70
41290;DHT22;36117;46.680;11.154;2022-11-20T07:31:24;8.30;66.60
41290;DHT22;36117;46.680;11.154;2022-11-20T07:33:50;8.40;67.40
41290;DHT22;36117;46.680;11.154;2022-11-20T07:36:16;8.50;66.00
41290;DHT22;36117;46.680;11.154;2022-11-20T07:38:42;8.50;65.20
41290;DHT22;36117;46.680;11.154;2022-11-20T07:41:07;8.30;64.70
41290;DHT22;36117;46.680;11.154;2022-11-20T07:43:33;8.50;64.80
41290;DHT22;36117;46.680;11.154;2022-11-20T07:45:59;8.30;64.70
41290;DHT22;36117;46.680;11.154;2022-11-20T07:48:25;8.40;64.80
41290;DHT22;36117;46.680;11.154;2022-11-20T07:50:57;8.40;64.40
41290;DHT22;36117;46.680;11.154;2022-11-20T07:53:23;8.60;64.50
41290;DHT22;36117;46.680;11.154;2022-11-20T07:55:49;8.70;64.10
41290;DHT22;36117;46.680;11.154;2022-11-20T07:58:18;8.70;63.70
41290;DHT22;36117;46.680;11.154;2022-11-20T08:00:45;9.60;62.20
41290;DHT22;36117;46.680;11.154;2022-11-20T08:03:11;12.00;57.60
41290;DHT22;36117;46.680;11.154;2022-11-20T08:05:36;14.30;51.50
41290;DHT22;36117;46.680;11.154;2022-11-20T08:08:03;15.80;47.90
41290;DHT22;36117;46.680;11.154;2022-11-20T08:10:28;17.30;45.20
41290;DHT22;36117;46.680;11.154;2022-11-20T08:12:54;18.50;41.60
41290;DHT22;36117;46.680;11.154;2022-11-20T08:15:39;19.40;40.30
41290;DHT22;36117;46.680;11.154;2022-11-20T08:18:08;19.90;38.40
41290;DHT22;36117;46.680;11.154;2022-11-20T08:20:34;20.00;37.80
41290;DHT22;36117;46.680;11.154;2022-11-20T08:23:05;19.90;38.10
41290;DHT22;36117;46.680;11.154;2022-11-20T08:25:32;19.70;38.40
41290;DHT22;36117;46.680;11.154;2022-11-20T08:28:00;20.40;37.80
41290;DHT22;36117;46.680;11.154;2022-11-20T08:30:26;19.30;37.40
41290;DHT22;36117;46.680;11.154;2022-11-20T08:32:52;20.40;37.20
41290;DHT22;36117;46.680;11.154;2022-11-20T08:35:19;19.80;36.00
41290;DHT22;36117;46.680;11.154;2022-11-20T08:37:48;20.40;35.70
41290;DHT22;36117;46.680;11.154;2022-11-20T08:40:14;21.30;35.40
41290;DHT22;36117;46.680;11.154;2022-11-20T08:42:48;22.00;34.60
41290;DHT22;36117;46.680;11.154;2022-11-20T08:45:14;22.50;33.70
41290;DHT22;36117;46.680;11.154;2022-11-20T08:47:40;23.00;32.40
41290;DHT22;36117;46.680;11.154;2022-11-20T08:50:08;23.10;31.40
41290;DHT22;36117;46.680;11.154;2022-11-20T08:52:34;23.50;31.30
41290;DHT22;36117;46.680;11.154;2022-11-20T08:54:59;23.60;30.40
41290;DHT22;36117;46.680;11.154;2022-11-20T08:57:25;23.80;30.50
41290;DHT22;36117;46.680;11.154;2022-11-20T08:59:50;23.90;30.10
41290;DHT22;36117;46.680;11.154;2022-11-20T09:02:16;24.40;30.30
41290;DHT22;36117;46.680;11.154;2022-11-20T09:04:42;24.30;30.00
41290;DHT22;36117;46.680;11.154;2022-11-20T09:07:08;24.40;29.70
41290;DHT22;36117;46.680;11.154;2022-11-20T09:09:33;24.00;29.70
41290;DHT22;36117;46.680;11.154;2022-11-20T09:11:59;23.50;29.00
41290;DHT22;36117;46.680;11.154;2022-11-20T09:14:25;23.30;29.40
41290;DHT22;36117;46.680;11.154;2022-11-20T09:16:55;22.70;31.00
41290;DHT22;36117;46.680;11.154;2022-11-20T09:19:20;23.00;30.20
41290;DHT22;36117;46.680;11.154;2022-11-20T09:21:46;22.90;30.40
41290;DHT22;36117;46.680;11.154;2022-11-20T09:24:12;23.00;30.60
41290;DHT22;36117;46.680;11.154;2022-11-20T09:26:37;22.10;30.80
41290;DHT22;36117;46.680;11.154;2022-11-20T09:29:03;22.80;30.50
41290;DHT22;36117;46.680;11.154;2022-11-20T09:31:29;23.00;30.70
41290;DHT22;36117;46.680;11.154;2022-11-20T09:33:54;23.00;30.20
41290;DHT22;36117;46.680;11.154;2022-11-20T09:36:20;21.80;31.20
41290;DHT22;36117;46.680;11.154;2022-11-20T09:38:46;22.40;31.10
41290;DHT22;36117;46.680;11.154;2022-11-20T09:41:46;21.70;31.10
41290;DHT22;36117;46.680;11.154;2022-11-20T09:47:27;21.30;31.70
41290;DHT22;36117;46.680;11.154;2022-11-20T09:50:14;21.10;31.30
41290;DHT22;36117;46.680;11.154;2022-11-20T09:53:01;21.30;31.70
41290;DHT22;36117;46.680;11.154;2022-11-20T09:55:31;21.20;31.10
41290;DHT22;36117;46.680;11.154;2022-11-20T09:57:58;21.60;31.10
41290;DHT22;36117;46.680;11.154;2022-11-20T10:00:25;21.50;30.30
41290;DHT22;36117;46.680;11.154;2022-11-20T10:03:16;21.50;30.20
41290;DHT22;36117;46.680;11.154;2022-11-20T10:05:52;21.60;29.90
41290;DHT22;36117;46.680;11.154;2022-11-20T10:08:22;22.20;30.30
41290;DHT22;36117;46.680;11.154;2022-11-20T10:17:19;22.70;29.40
41290;DHT22;36117;46.680;11.154;2022-11-20T10:20:24;22.70;29.00
41290;DHT22;36117;46.680;11.154;2022-11-20T10:25:56;22.20;29.20
41290;DHT22;36117;46.680;11.154;2022-11-20T10:31:03;22.70;28.70
41290;DHT22;36117;46.680;11.154;2022-11-20T10:33:37;23.90;29.00
41290;DHT22;36117;46.680;11.154;2022-11-20T10:36:19;24.60;27.80
41290;DHT22;36117;46.680;11.154;2022-11-20T10:38:57;25.10;27.00
41290;DHT22;36117;46.680;11.154;2022-11-20T10:41:28;25.20;26.90
41290;DHT22;36117;46.680;11.154;2022-11-20T10:44:20;25.90;26.90
41290;DHT22;36117;46.680;11.154;2022-11-20T10:47:08;24.60;27.00
41290;DHT22;36117;46.680;11.154;2022-11-20T10:49:35;24.40;27.20
41290;DHT22;36117;46.680;11.154;2022-11-20T10:52:13;25.30;27.00
41290;DHT22;36117;46.680;11.154;2022-11-20T11:00:09;27.10;26.40
41290;DHT22;36117;46.680;11.154;2022-11-20T11:05:33;26.70;26.50
41290;DHT22;36117;46.680;11.154;2022-11-20T11:08:03;26.70;26.20
41290;DHT22;36117;46.680;11.154;2022-11-20T11:10:42;25.90;26.30
41290;DHT22;36117;46.680;11.154;2022-11-20T11:13:22;26.70;26.40
41290;DHT22;36117;46.680;11.154;2022-11-20T11:15:49;25.50;26.40
41290;DHT22;36117;46.680;11.154;2022-11-20T11:18:34;25.40;26.80
41290;DHT22;36117;46.680;11.154;2022-11-20T11:21:02;25.40;27.30
41290;DHT22;36117;46.680;11.154;2022-11-20T11:23:35;25.30;27.50
41290;DHT22;36117;46.680;11.154;2022-11-20T11:26:04;24.00;27.50
41290;DHT22;36117;46.680;11.154;2022-11-20T11:28:31;23.40;28.50
41290;DHT22;36117;46.680;11.154;2022-11-20T11:30:57;22.30;29.10
41290;DHT22;36117;46.680;11.154;2022-11-20T11:33:28;22.50;29.60
41290;DHT22;36117;46.680;11.154;2022-11-20T11:36:00;22.10;29.80
41290;DHT22;36117;46.680;11.154;2022-11-20T11:38:41;21.70;30.00
41290;DHT22;36117;46.680;11.154;2022-11-20T11:41:22;21.30;29.80
41290;DHT22;36117;46.680;11.154;2022-11-20T11:47:00;21.50;30.50
41290;DHT22;36117;46.680;11.154;2022-11-20T11:49:26;21.80;31.20
41290;DHT22;36117;46.680;11.154;2022-11-20T11:52:38;22.20;30.40
41290;DHT22;36117;46.680;11.154;2022-11-20T11:54:57;22.00;30.00
41290;DHT22;36117;46.680;11.154;2022-11-20T12:00:17;21.00;30.80
41290;DHT22;36117;46.680;11.154;2022-11-20T12:05:20;19.90;33.20
41290;DHT22;36117;46.680;11.154;2022-11-20T12:08:06;19.50;33.20
41290;DHT22;36117;46.680;11.154;2022-11-20T12:10:49;19.10;33.70
41290;DHT22;36117;46.680;11.154;2022-11-20T12:13:30;18.40;33.80
41290;DHT22;36117;46.680;11.154;2022-11-20T12:15:59;18.30;34.60
41290;DHT22;36117;46.680;11.154;2022-11-20T12:18:25;18.20;35.10
41290;DHT22;36117;46.680;11.154;2022-11-20T12:23:44;18.50;34.90
41290;DHT22;36117;46.680;11.154;2022-11-20T12:26:48;18.80;34.50
41290;DHT22;36117;46.680;11.154;2022-11-20T12:29:42;19.10;34.50
41290;DHT22;36117;46.680;11.154;2022-11-20T12:32:34;19.20;33.50
41290;DHT22;36117;46.680;11.154;2022-11-20T12:35:25;18.90;33.50
41290;DHT22;36117;46.680;11.154;2022-11-20T12:53:17;18.40;34.80
41290;DHT22;36117;46.680;11.154;2022-11-20T13:06:58;17.50;36.80
41290;DHT22;36117;46.680;11.154;2022-11-20T13:09:25;17.60;37.30
41290;DHT22;36117;46.680;11.154;2022-11-20T13:12:41;17.30;37.50
41290;DHT22;36117;46.680;11.154;2022-11-20T13:18:04;17.40;37.10
41290;DHT22;36117;46.680;11.154;2022-11-20T13:20:30;17.60;36.80
41290;DHT22;36117;46.680;11.154;2022-11-20T13:22:58;17.60;36.90
41290;DHT22;36117;46.680;11.154;2022-11-20T13:25:29;17.90;36.40
41290;DHT22;36117;46.680;11.154;2022-11-20T13:27:57;18.30;35.40
41290;DHT22;36117;46.680;11.154;2022-11-20T13:30:28;18.00;35.10
41290;DHT22;36117;46.680;11.154;2022-11-20T13:33:00;17.80;35.70
41290;DHT22;36117;46.680;11.154;2022-11-20T13:35:40;17.70;37.20
41290;DHT22;36117;46.680;11.154;2022-11-20T13:38:14;18.10;35.60
41290;DHT22;36117;46.680;11.154;2022-11-20T13:43:27;18.60;35.80
41290;DHT22;36117;46.680;11.154;2022-11-20T13:46:00;18.90;36.40
41290;DHT22;36117;46.680;11.154;2022-11-20T13:48:31;19.00;36.40
41290;DHT22;36117;46.680;11.154;2022-11-20T13:54:05;19.00;36.00
41290;DHT22;36117;46.680;11.154;2022-11-20T14:02:22;18.60;36.20
41290;DHT22;36117;46.680;11.154;2022-11-20T14:04:51;18.10;36.90
41290;DHT22;36117;46.680;11.154;2022-11-20T14:07:20;17.70;37.70
41290;DHT22;36117;46.680;11.154;2022-11-20T14:09:54;17.40;38.10
41290;DHT22;36117;46.680;11.154;2022-11-20T14:12:29;17.10;38.70
41290;DHT22;36117;46.680;11.154;2022-11-20T14:14:56;17.00;39.40
41290;DHT22;36117;46.680;11.154;2022-11-20T14:17:33;16.80;39.60
41290;DHT22;36117;46.680;11.154;2022-11-20T14:20:06;16.70;39.80
41290;DHT22;36117;46.680;11.154;2022-11-20T14:22:33;16.60;40.60
41290;DHT22;36117;46.680;11.154;2022-11-20T14:25:14;16.50;40.20
41290;DHT22;36117;46.680;11.154;2022-11-20T14:27:50;16.30;41.00
41290;DHT22;36117;46.680;11.154;2022-11-20T14:30:20;16.10;40.90
41290;DHT22;36117;46.680;11.154;2022-11-20T14:32:47;15.70;41.90
41290;DHT22;36117;46.680;11.154;2022-11-20T14:35:26;15.80;42.30
41290;DHT22;36117;46.680;11.154;2022-11-20T14:37:54;15.60;43.20
41290;DHT22;36117;46.680;11.154;2022-11-20T14:40:29;15.50;43.40
41290;DHT22;36117;46.680;11.154;2022-11-20T14:42:57;15.60;43.70
41290;DHT22;36117;46.680;11.154;2022-11-20T14:45:24;15.20;43.50
41290;DHT22;36117;46.680;11.154;2022-11-20T14:47:52;15.00;44.00
41290;DHT22;36117;46.680;11.154;2022-11-20T14:50:28;14.90;44.80
41290;DHT22;36117;46.680;11.154;2022-11-20T14:52:59;14.80;45.10
41290;DHT22;36117;46.680;11.154;2022-11-20T14:55:36;14.80;45.60
41290;DHT22;36117;46.680;11.154;2022-11-20T14:58:05;14.60;45.30
41290;DHT22;36117;46.680;11.154;2022-11-20T15:00:33;14.70;45.80
41290;DHT22;36117;46.680;11.154;2022-11-20T15:02:59;14.60;46.50
41290;DHT22;36117;46.680;11.154;2022-11-20T15:05:43;14.60;46.20
41290;DHT22;36117;46.680;11.154;2022-11-20T15:08:13;14.50;47.20
41290;DHT22;36117;46.680;11.154;2022-11-20T15:10:45;14.40;46.80
41290;DHT22;36117;46.680;11.154;2022-11-20T15:13:14;14.20;48.00
41290;DHT22;36117;46.680;11.154;2022-11-20T15:15:52;14.10;47.90
41290;DHT22;36117;46.680;11.154;2022-11-20T15:18:22;14.10;48.20
41290;DHT22;36117;46.680;11.154;2022-11-20T15:20:50;14.00;47.80
41290;DHT22;36117;46.680;11.154;2022-11-20T15:23:17;14.00;48.90
41290;DHT22;36117;46.680;11.154;2022-11-20T15:25:47;13.80;49.20
41290;DHT22;36117;46.680;11.154;2022-11-20T15:28:21;13.70;48.90
41290;DHT22;36117;46.680;11.154;2022-11-20T15:30:49;13.40;50.30
41290;DHT22;36117;46.680;11.154;2022-11-20T15:33:16;13.50;50.50
41290;DHT22;36117;46.680;11.154;2022-11-20T15:35:42;13.40;49.80
41290;DHT22;36117;46.680;11.154;2022-11-20T15:38:08;13.40;50.60
41290;DHT22;36117;46.680;11.154;2022-11-20T15:40:34;12.80;52.20
41290;DHT22;36117;46.680;11.154;2022-11-20T15:42:59;12.80;52.70
41290;DHT22;36117;46.680;11.154;2022-11-20T15:45:44;12.60;52.70
41290;DHT22;36117;46.680;11.154;2022-11-20T15:48:14;12.40;53.30
41290;DHT22;36117;46.680;11.154;2022-11-20T15:53:21;12.30;54.10
41290;DHT22;36117;46.680;11.154;2022-11-20T15:55:47;12.00;54.10
41290;DHT22;36117;46.680;11.154;2022-11-20T15:58:12;12.00;54.80
41290;DHT22;36117;46.680;11.154;2022-11-20T16:00:38;12.00;55.30
41290;DHT22;36117;46.680;11.154;2022-11-20T16:03:04;12.00;55.80
41290;DHT22;36117;46.680;11.154;2022-11-20T16:05:30;12.00;55.80
41290;DHT22;36117;46.680;11.154;2022-11-20T16:07:56;11.70;56.50
41290;DHT22;36117;46.680;11.154;2022-11-20T16:10:23;11.50;53.80
41290;DHT22;36117;46.680;11.154;2022-11-20T16:12:49;11.60;54.40
41290;DHT22;36117;46.680;11.154;2022-11-20T16:15:34;11.60;54.50
41290;DHT22;36117;46.680;11.154;2022-11-20T16:18:14;11.70;49.90
41290;DHT22;36117;46.680;11.154;2022-11-20T16:20:40;11.60;49.10
41290;DHT22;36117;46.680;11.154;2022-11-20T16:23:06;11.40;47.50
41290;DHT22;36117;46.680;11.154;2022-11-20T16:25:32;11.50;47.10
41290;DHT22;36117;46.680;11.154;2022-11-20T16:27:58;11.20;52.20
41290;DHT22;36117;46.680;11.154;2022-11-20T16:30:24;11.10;53.30
41290;DHT22;36117;46.680;11.154;2022-11-20T16:32:50;11.60;53.10
41290;DHT22;36117;46.680;11.154;2022-11-20T16:35:16;11.60;52.50
41290;DHT22;36117;46.680;11.154;2022-11-20T16:37:41;11.80;52.30
41290;DHT22;36117;46.680;11.154;2022-11-20T16:40:09;11.70;52.90
41290;DHT22;36117;46.680;11.154;2022-11-20T16:42:36;11.80;52.60
41290;DHT22;36117;46.680;11.154;2022-11-20T16:45:03;11.80;52.50
41290;DHT22;36117;46.680;11.154;2022-11-20T16:47:35;11.90;53.00
41290;DHT22;36117;46.680;11.154;2022-11-20T16:50:03;11.80;52.80
41290;DHT22;36117;46.680;11.154;2022-11-20T16:52:32;11.30;54.10
41290;DHT22;36117;46.680;11.154;2022-11-20T16:54:58;11.40;54.00
41290;DHT22;36117;46.680;11.154;2022-11-20T16:57:26;11.40;54.80
41290;DHT22;36117;46.680;11.154;2022-11-20T16:59:54;11.30;53.40
41290;DHT22;36117;46.680;11.154;2022-11-20T17:02:24;11.30;54.10
41290;DHT22;36117;46.680;11.154;2022-11-20T17:04:53;11.30;54.40
41290;DHT22;36117;46.680;11.154;2022-11-20T17:07:22;11.30;54.50
41290;DHT22;36117;46.680;11.154;2022-11-20T17:09:48;11.30;54.10